createdAt,value
2018-07-25T00:01:02.796Z,22.62
2018-07-25T00:03:28.832Z,22.55
2018-07-25T00:05:54.865Z,22.50
2018-07-25T00:08:20.909Z,22.44
2018-07-25T00:10:46.910Z,22.42
2018-07-25T00:13:12.922Z,22.35
2018-07-25T00:15:38.943Z,22.25
2018-07-25T00:18:04.994Z,22.16
2018-07-25T00:20:31.013Z,22.10
2018-07-25T00:22:57.045Z,22.09
2018-07-25T00:25:23.079Z,22.08
2018-07-25T00:27:49.067Z,22.04
2018-07-25T00:30:15.104Z,22.00
2018-07-25T00:32:41.119Z,21.92
2018-07-25T00:35:07.151Z,21.85
2018-07-25T00:37:33.145Z,21.81
2018-07-25T00:39:59.181Z,21.73
2018-07-25T00:42:25.224Z,21.70
2018-07-25T00:44:51.244Z,21.69
2018-07-25T00:47:17.261Z,21.65
2018-07-25T00:49:43.274Z,21.56
2018-07-25T00:52:09.318Z,21.51
2018-07-25T00:54:35.339Z,21.51
2018-07-25T00:57:01.374Z,21.51
2018-07-25T00:59:27.402Z,21.49
2018-07-25T01:01:53.475Z,21.47
2018-07-25T01:04:19.489Z,21.40
2018-07-25T01:06:45.523Z,21.38
2018-07-25T01:09:11.554Z,21.36
2018-07-25T01:11:37.599Z,21.33
2018-07-25T01:14:03.703Z,21.25
2018-07-25T01:16:29.738Z,21.18
2018-07-25T01:18:55.736Z,21.13
2018-07-25T01:21:21.794Z,21.11
2018-07-25T01:23:47.810Z,21.08
2018-07-25T01:26:13.827Z,21.06
2018-07-25T01:28:39.820Z,21.03
2018-07-25T01:31:05.858Z,20.99
2018-07-25T01:33:31.858Z,20.97
2018-07-25T01:35:57.894Z,20.98
2018-07-25T01:38:23.945Z,20.94
2018-07-25T01:40:49.953Z,20.90
2018-07-25T01:43:16.009Z,20.88
2018-07-25T01:45:42.023Z,20.85
2018-07-25T01:48:08.052Z,20.82
2018-07-25T01:50:34.069Z,20.76
2018-07-25T01:53:00.119Z,20.73
2018-07-25T01:55:26.166Z,20.72
2018-07-25T01:57:52.242Z,20.69
2018-07-25T02:00:18.233Z,20.65
2018-07-25T02:02:44.294Z,20.63
2018-07-25T02:05:10.314Z,20.57
2018-07-25T02:07:36.329Z,20.56
2018-07-25T02:10:02.323Z,20.54
2018-07-25T02:12:28.331Z,20.54
2018-07-25T02:14:54.374Z,20.50
2018-07-25T02:17:20.410Z,20.44
2018-07-25T02:19:46.431Z,20.41
2018-07-25T02:22:12.438Z,20.37
2018-07-25T02:24:42.590Z,20.36
2018-07-25T02:27:08.609Z,20.32
2018-07-25T02:29:34.620Z,20.24
2018-07-25T02:32:00.656Z,20.21
2018-07-25T02:34:26.661Z,20.17
2018-07-25T02:36:52.668Z,20.13
2018-07-25T02:39:18.684Z,20.11
2018-07-25T02:41:44.687Z,20.05
2018-07-25T02:44:10.708Z,20.00
2018-07-25T02:46:36.814Z,19.96
2018-07-25T02:49:02.818Z,19.93
2018-07-25T02:51:28.833Z,19.92
2018-07-25T02:53:54.843Z,19.92
2018-07-25T02:56:20.862Z,19.93
2018-07-25T02:58:46.856Z,19.90
2018-07-25T03:01:12.892Z,19.91
2018-07-25T03:03:38.923Z,19.90
2018-07-25T03:06:04.939Z,19.89
2018-07-25T03:08:30.978Z,19.88
2018-07-25T03:10:57.024Z,19.85
2018-07-25T03:13:23.030Z,19.84
2018-07-25T03:15:49.090Z,19.81
2018-07-25T03:18:15.157Z,19.78
2018-07-25T03:20:41.179Z,19.77
2018-07-25T03:23:07.193Z,19.75
2018-07-25T03:25:33.241Z,19.72
2018-07-25T03:27:59.233Z,19.71
2018-07-25T03:30:25.230Z,19.69
2018-07-25T03:32:51.329Z,19.66
2018-07-25T03:35:17.343Z,19.62
2018-07-25T03:37:43.328Z,19.62
2018-07-25T03:40:09.357Z,19.60
2018-07-25T03:42:35.370Z,19.56
2018-07-25T03:45:01.382Z,19.56
2018-07-25T03:47:27.410Z,19.49
2018-07-25T03:49:53.476Z,19.45
2018-07-25T03:52:19.495Z,19.42
2018-07-25T03:54:45.496Z,19.37
2018-07-25T03:57:11.491Z,19.35
2018-07-25T03:59:37.503Z,19.29
2018-07-25T04:02:03.530Z,19.25
2018-07-25T04:04:29.856Z,19.24
2018-07-25T04:06:55.884Z,19.21
2018-07-25T04:09:21.880Z,19.27
2018-07-25T04:11:47.895Z,19.32
2018-07-25T04:14:13.930Z,19.33
2018-07-25T04:18:25.907Z,19.37
2018-07-25T04:20:51.933Z,19.35
2018-07-25T04:23:17.959Z,19.36
2018-07-25T04:25:43.990Z,19.37
2018-07-25T04:28:10.004Z,19.41
2018-07-25T04:32:34.364Z,19.42
2018-07-25T04:35:00.383Z,19.44
2018-07-25T04:37:26.406Z,19.46
2018-07-25T04:40:47.975Z,19.56
2018-07-25T04:43:13.984Z,19.60
2018-07-25T04:45:40.003Z,19.65
2018-07-25T04:48:06.011Z,19.72
2018-07-25T04:50:32.035Z,19.77
2018-07-25T04:52:58.027Z,19.75
2018-07-25T04:55:24.044Z,19.78
2018-07-25T04:57:50.050Z,19.84
2018-07-25T05:00:16.080Z,19.85
2018-07-25T05:02:42.096Z,19.86
2018-07-25T05:05:08.127Z,19.85
2018-07-25T05:07:34.136Z,19.83
2018-07-25T05:10:00.139Z,19.84
2018-07-25T05:12:26.212Z,19.86
2018-07-25T05:14:52.217Z,19.90
2018-07-25T05:17:18.270Z,19.93
2018-07-25T05:19:44.640Z,19.98
2018-07-25T05:22:10.683Z,20.01
2018-07-25T05:24:36.680Z,20.05
2018-07-25T05:28:16.292Z,20.09
2018-07-25T05:30:42.310Z,20.17
2018-07-25T05:33:08.322Z,20.19
2018-07-25T05:35:34.339Z,20.24
2018-07-25T05:38:00.361Z,20.29
2018-07-25T05:40:26.362Z,20.34
2018-07-25T05:42:52.393Z,20.41
2018-07-25T05:45:18.410Z,20.46
2018-07-25T05:47:44.400Z,20.52
2018-07-25T05:50:10.420Z,20.57
2018-07-25T05:52:36.469Z,20.72
2018-07-25T05:56:52.561Z,20.95
2018-07-25T05:59:18.571Z,21.10
2018-07-25T06:01:44.575Z,21.22
2018-07-25T06:04:10.615Z,21.30
2018-07-25T06:06:36.680Z,21.34
2018-07-25T06:09:02.704Z,21.45
2018-07-25T06:11:28.716Z,21.55
2018-07-25T06:13:54.730Z,21.69
2018-07-25T06:16:20.762Z,21.80
2018-07-25T06:18:46.790Z,21.91
2018-07-25T06:21:12.806Z,21.99
2018-07-25T06:23:38.837Z,22.11
2018-07-25T06:26:05.001Z,22.20
2018-07-25T06:28:30.899Z,22.23
2018-07-25T06:34:20.160Z,22.48
2018-07-25T06:36:46.175Z,22.57
2018-07-25T06:39:12.192Z,22.65
2018-07-25T06:41:38.210Z,22.77
2018-07-25T06:44:04.207Z,22.88
2018-07-25T06:46:30.252Z,22.99
2018-07-25T06:48:56.318Z,23.10
2018-07-25T06:51:22.615Z,23.22
2018-07-25T06:53:48.652Z,23.34
2018-07-25T06:56:14.705Z,23.43
2018-07-25T06:58:41.095Z,23.51
2018-07-25T07:01:07.123Z,23.60
2018-07-25T07:03:33.144Z,23.69
2018-07-25T07:05:59.224Z,23.76
2018-07-25T07:08:25.192Z,23.84
2018-07-25T07:10:51.215Z,23.89
2018-07-25T07:13:17.234Z,23.99
2018-07-25T07:15:43.360Z,24.08
2018-07-25T07:18:09.394Z,24.15
2018-07-25T07:20:35.413Z,24.26
2018-07-25T07:23:01.419Z,24.34
2018-07-25T07:25:27.456Z,24.43
2018-07-25T07:27:53.495Z,24.52
2018-07-25T07:30:19.506Z,24.64
2018-07-25T07:32:45.507Z,24.74
2018-07-25T07:35:11.560Z,24.84
2018-07-25T07:37:37.604Z,24.96
2018-07-25T07:40:03.651Z,25.08
2018-07-25T07:42:29.667Z,25.18
2018-07-25T07:44:55.673Z,25.27
2018-07-25T07:47:21.668Z,25.37
2018-07-25T07:49:47.678Z,25.48
2018-07-25T07:52:13.710Z,25.60
2018-07-25T07:54:39.746Z,25.73
2018-07-25T07:57:06.053Z,25.86
2018-07-25T07:59:32.160Z,25.97
2018-07-25T08:01:58.144Z,26.08
2018-07-25T08:04:24.202Z,26.17
2018-07-25T08:06:50.224Z,26.26
2018-07-25T08:09:16.259Z,26.32
2018-07-25T08:11:42.290Z,26.43
2018-07-25T08:14:08.295Z,26.54
2018-07-25T08:16:34.324Z,26.66
2018-07-25T08:19:00.401Z,26.74
2018-07-25T08:21:26.408Z,26.86
2018-07-25T08:23:52.429Z,26.99
2018-07-25T08:26:18.691Z,27.12
2018-07-25T08:28:44.735Z,27.23
2018-07-25T08:31:10.734Z,27.38
2018-07-25T08:33:36.744Z,27.58
2018-07-25T08:36:02.862Z,27.74
2018-07-25T08:38:28.901Z,27.88
2018-07-25T08:40:55.287Z,28.08
2018-07-25T08:43:21.292Z,28.23
2018-07-25T08:45:47.637Z,28.37
2018-07-25T08:48:13.664Z,28.50
2018-07-25T08:50:39.728Z,28.62
2018-07-25T08:53:05.765Z,28.67
2018-07-25T08:55:31.809Z,28.77
2018-07-25T08:57:57.848Z,28.84
2018-07-25T09:00:23.913Z,28.89
2018-07-25T09:02:49.920Z,28.91
2018-07-25T09:05:15.961Z,29.01
2018-07-25T09:07:42.069Z,29.09
2018-07-25T09:10:08.073Z,29.13
2018-07-25T09:12:34.114Z,29.27
2018-07-25T09:15:00.176Z,29.37
2018-07-25T09:17:26.251Z,29.48
2018-07-25T09:19:52.443Z,29.53
2018-07-25T09:22:18.641Z,29.69
2018-07-25T09:24:44.636Z,29.81
2018-07-25T09:27:10.686Z,29.86
2018-07-25T09:29:36.694Z,29.93
2018-07-25T09:32:02.724Z,30.01
2018-07-25T09:34:28.890Z,30.09
2018-07-25T09:36:54.858Z,30.21
2018-07-25T09:39:20.991Z,30.34
2018-07-25T09:41:47.046Z,30.47
2018-07-25T09:44:13.081Z,30.56
2018-07-25T09:46:39.252Z,30.67
2018-07-25T09:49:05.130Z,30.79
2018-07-25T09:51:31.207Z,30.90
2018-07-25T09:53:57.244Z,30.98
2018-07-25T09:56:23.297Z,31.09
2018-07-25T09:58:49.331Z,31.19
2018-07-25T10:01:15.381Z,31.28
2018-07-25T10:03:41.619Z,31.35
2018-07-25T10:06:07.673Z,31.45
2018-07-25T10:08:33.743Z,31.57
2018-07-25T10:10:59.797Z,31.71
2018-07-25T10:13:25.877Z,31.86
2018-07-25T10:15:51.960Z,31.99
2018-07-25T10:18:18.055Z,32.07
2018-07-25T10:20:44.126Z,32.21
2018-07-25T10:23:10.217Z,32.32
2018-07-25T10:25:36.405Z,32.45
2018-07-25T10:28:02.526Z,32.50
2018-07-25T10:30:28.647Z,32.52
2018-07-25T10:32:55.047Z,32.52
2018-07-25T10:35:21.051Z,32.58
2018-07-25T10:37:47.129Z,32.68
2018-07-25T10:40:13.198Z,32.77
2018-07-25T10:42:39.348Z,32.83
2018-07-25T10:45:05.515Z,32.91
2018-07-25T10:47:31.647Z,32.98
2018-07-25T10:49:57.773Z,33.01
2018-07-25T10:52:24.208Z,33.03
2018-07-25T10:54:50.138Z,33.05
2018-07-25T10:57:16.308Z,33.20
2018-07-25T10:59:42.380Z,33.30
2018-07-25T11:02:08.534Z,33.39
2018-07-25T11:04:34.936Z,33.51
2018-07-25T11:07:01.021Z,33.43
2018-07-25T11:09:27.099Z,33.51
2018-07-25T11:11:53.207Z,33.58
2018-07-25T11:14:19.280Z,33.61
2018-07-25T11:16:45.440Z,33.71
2018-07-25T11:19:11.602Z,33.79
2018-07-25T11:21:37.913Z,33.88
2018-07-25T11:24:04.192Z,33.94
2018-07-25T11:26:30.248Z,34.05
2018-07-25T11:28:56.655Z,34.16
2018-07-25T11:31:22.709Z,34.34
2018-07-25T11:33:48.958Z,34.47
2018-07-25T11:36:15.082Z,34.58
2018-07-25T11:38:41.126Z,34.66
2018-07-25T11:41:07.437Z,34.70
2018-07-25T11:43:33.662Z,34.69
2018-07-25T11:45:59.769Z,34.82
2018-07-25T11:48:26.327Z,35.03
2018-07-25T11:50:52.419Z,35.28
2018-07-25T11:53:18.454Z,35.39
2018-07-25T11:55:44.911Z,35.66
2018-07-25T11:58:11.060Z,36.18
2018-07-25T12:00:37.421Z,36.57
2018-07-25T12:03:03.463Z,37.14
2018-07-25T12:05:29.554Z,37.53
2018-07-25T12:07:55.624Z,37.85
2018-07-25T12:10:21.743Z,38.05
2018-07-25T12:12:47.830Z,38.61
2018-07-25T12:15:13.984Z,39.40
2018-07-25T12:17:40.066Z,39.91
2018-07-25T12:20:06.225Z,40.11
2018-07-25T12:22:33.512Z,40.35
2018-07-25T12:25:00.817Z,41.23
2018-07-25T12:27:26.954Z,42.34
2018-07-25T12:29:53.121Z,43.88
2018-07-25T12:32:19.324Z,45.23
2018-07-25T12:34:45.615Z,45.63
2018-07-25T12:37:11.803Z,45.66
2018-07-25T12:39:37.907Z,44.72
2018-07-25T12:42:04.035Z,43.83
2018-07-25T12:44:30.148Z,42.91
2018-07-25T12:46:56.350Z,42.24
2018-07-25T12:49:22.488Z,41.64
2018-07-25T12:51:48.672Z,41.15
2018-07-25T12:54:14.856Z,40.69
2018-07-25T12:56:40.935Z,40.45
2018-07-25T12:59:07.033Z,40.66
2018-07-25T13:01:33.141Z,41.89
2018-07-25T13:03:59.216Z,43.77
2018-07-25T13:06:25.302Z,45.55
2018-07-25T13:08:51.381Z,47.17
2018-07-25T13:11:17.458Z,48.62
2018-07-25T13:13:43.518Z,49.20
2018-07-25T13:16:09.578Z,49.63
2018-07-25T13:18:35.648Z,49.82
2018-07-25T13:21:01.696Z,49.92
2018-07-25T13:24:28.930Z,49.03
2018-07-25T13:26:55.038Z,47.80
2018-07-25T13:29:21.111Z,47.10
2018-07-25T13:31:47.203Z,47.49
2018-07-25T13:34:13.305Z,48.18
2018-07-25T13:36:39.389Z,47.77
2018-07-25T13:39:05.469Z,47.45
2018-07-25T13:41:31.534Z,46.50
2018-07-25T13:43:57.620Z,45.03
2018-07-25T13:46:23.910Z,43.98
2018-07-25T13:48:49.857Z,43.04
2018-07-25T13:51:15.936Z,42.19
2018-07-25T13:53:42.022Z,41.47
2018-07-25T13:56:08.173Z,40.61
2018-07-25T13:58:34.240Z,40.20
2018-07-25T14:01:00.305Z,39.68
2018-07-25T14:03:26.457Z,39.36
2018-07-25T14:05:52.617Z,39.06
2018-07-25T14:08:18.661Z,38.80
2018-07-25T14:10:45.601Z,38.47
2018-07-25T14:13:11.662Z,38.25
2018-07-25T14:15:37.744Z,38.04
2018-07-25T14:18:03.840Z,37.84
2018-07-25T14:20:29.909Z,37.74
2018-07-25T14:22:55.956Z,37.57
2018-07-25T14:25:22.114Z,37.40
2018-07-25T14:27:48.194Z,37.43
2018-07-25T14:30:14.360Z,37.40
2018-07-25T14:32:40.388Z,37.49
2018-07-25T14:35:06.477Z,37.57
2018-07-25T14:37:32.553Z,37.58
2018-07-25T14:39:58.655Z,38.25
2018-07-25T14:42:24.707Z,38.99
2018-07-25T14:44:50.778Z,39.34
2018-07-25T14:47:17.015Z,39.45
2018-07-25T14:49:42.913Z,39.30
2018-07-25T14:52:08.975Z,38.82
2018-07-25T14:54:35.038Z,37.93
2018-07-25T14:57:01.229Z,37.64
2018-07-25T14:59:27.241Z,37.31
2018-07-25T15:01:53.366Z,36.73
2018-07-25T15:04:19.442Z,36.49
2018-07-25T15:06:45.601Z,36.16
2018-07-25T15:09:11.662Z,35.80
2018-07-25T15:11:37.718Z,35.70
2018-07-25T15:14:03.789Z,35.53
2018-07-25T15:16:29.864Z,35.33
2018-07-25T15:18:55.926Z,35.30
2018-07-25T15:21:21.989Z,35.20
2018-07-25T15:23:48.105Z,35.15
2018-07-25T15:26:14.123Z,35.35
2018-07-25T15:28:40.214Z,35.44
2018-07-25T15:31:06.297Z,35.83
2018-07-25T15:33:32.461Z,36.27
2018-07-25T15:35:58.616Z,36.29
2018-07-25T15:38:24.838Z,36.41
2018-07-25T15:40:50.897Z,36.52
2018-07-25T15:43:16.978Z,37.58
2018-07-25T15:45:43.038Z,38.52
2018-07-25T15:48:09.122Z,38.94
2018-07-25T15:50:35.191Z,39.85
2018-07-25T15:53:01.375Z,39.57
2018-07-25T15:55:27.436Z,39.24
2018-07-25T15:57:53.620Z,39.12
2018-07-25T16:00:19.682Z,39.81
2018-07-25T16:02:45.743Z,40.00
2018-07-25T16:05:11.867Z,39.59
2018-07-25T16:07:37.945Z,39.44
2018-07-25T16:10:04.055Z,39.56
2018-07-25T16:12:30.118Z,38.96
2018-07-25T16:14:56.174Z,37.72
2018-07-25T16:17:22.359Z,37.25
2018-07-25T16:19:48.469Z,36.97
2018-07-25T16:22:14.522Z,37.25
2018-07-25T16:24:40.652Z,37.20
2018-07-25T16:27:06.785Z,37.33
2018-07-25T16:29:32.846Z,37.09
2018-07-25T16:31:58.906Z,36.62
2018-07-25T16:34:25.012Z,36.22
2018-07-25T16:36:51.059Z,35.82
2018-07-25T16:39:17.138Z,35.28
2018-07-25T16:41:43.220Z,34.65
2018-07-25T16:44:09.278Z,34.30
2018-07-25T16:46:35.430Z,33.95
2018-07-25T16:49:01.521Z,33.62
2018-07-25T16:51:27.580Z,33.33
2018-07-25T16:53:53.646Z,33.15
2018-07-25T16:56:19.744Z,32.78
2018-07-25T16:58:45.806Z,32.50
2018-07-25T17:01:12.147Z,32.36
2018-07-25T17:03:38.231Z,32.12
2018-07-25T17:06:04.304Z,31.94
2018-07-25T17:08:30.358Z,31.84
2018-07-25T17:10:56.406Z,31.71
2018-07-25T17:13:22.462Z,31.54
2018-07-25T17:15:48.513Z,31.50
2018-07-25T17:18:14.631Z,31.40
2018-07-25T17:20:40.693Z,31.35
2018-07-25T17:23:06.759Z,31.16
2018-07-25T17:25:32.849Z,31.05
2018-07-25T17:27:58.914Z,30.88
2018-07-25T17:30:25.001Z,30.78
2018-07-25T17:32:51.069Z,30.65
2018-07-25T17:35:17.165Z,30.60
2018-07-25T17:37:43.183Z,30.55
2018-07-25T17:40:09.241Z,30.48
2018-07-25T17:42:35.294Z,30.40
2018-07-25T17:45:01.362Z,30.23
2018-07-25T17:47:27.417Z,30.06
2018-07-25T17:49:53.489Z,30.09
2018-07-25T17:52:19.558Z,30.06
2018-07-25T17:54:45.611Z,30.04
2018-07-25T17:57:11.662Z,29.95
2018-07-25T17:59:37.743Z,29.96
2018-07-25T18:02:03.811Z,29.82
2018-07-25T18:04:29.874Z,29.76
2018-07-25T18:06:56.003Z,29.68
2018-07-25T18:09:22.063Z,29.65
2018-07-25T18:11:48.129Z,29.57
2018-07-25T18:14:14.192Z,29.46
2018-07-25T18:16:40.278Z,29.32
2018-07-25T18:19:06.372Z,29.16
2018-07-25T18:21:32.471Z,29.06
2018-07-25T18:23:58.537Z,28.92
2018-07-25T18:26:24.606Z,28.81
2018-07-25T18:28:50.670Z,28.70
2018-07-25T18:31:16.737Z,28.50
2018-07-25T18:33:42.798Z,28.38
2018-07-25T18:36:08.857Z,28.26
2018-07-25T18:38:34.925Z,28.15
2018-07-25T18:41:00.991Z,27.98
2018-07-25T18:43:27.033Z,27.92
2018-07-25T18:45:55.136Z,27.84
2018-07-25T18:48:21.187Z,27.74
2018-07-25T18:50:47.237Z,27.68
2018-07-25T18:53:13.279Z,27.56
2018-07-25T18:55:39.326Z,27.48
2018-07-25T18:58:05.379Z,27.40
2018-07-25T19:00:31.419Z,27.31
2018-07-25T19:02:57.486Z,27.22
2018-07-25T19:05:23.690Z,27.12
2018-07-25T19:07:49.693Z,26.95
2018-07-25T19:10:15.733Z,26.84
2018-07-25T19:12:41.761Z,26.75
2018-07-25T19:15:07.798Z,26.60
2018-07-25T19:17:33.869Z,26.48
2018-07-25T19:19:59.902Z,26.43
2018-07-25T19:22:25.938Z,26.31
2018-07-25T19:24:51.984Z,26.25
2018-07-25T19:27:18.026Z,26.16
2018-07-25T19:29:44.062Z,26.08
2018-07-25T19:32:10.106Z,25.99
2018-07-25T19:34:36.177Z,25.91
2018-07-25T19:37:02.214Z,25.85
2018-07-25T19:39:28.246Z,25.75
2018-07-25T19:46:58.403Z,25.50
2018-07-25T19:49:24.439Z,25.46
2018-07-25T19:51:50.481Z,25.41
2018-07-25T19:54:16.517Z,25.33
2018-07-25T19:56:42.558Z,25.24
2018-07-25T19:59:08.598Z,25.19
2018-07-25T20:01:34.642Z,25.12
2018-07-25T20:04:00.682Z,25.05
2018-07-25T20:06:26.730Z,24.99
2018-07-25T20:08:52.821Z,24.92
2018-07-25T20:11:18.862Z,24.82
2018-07-25T20:13:53.675Z,24.78
2018-07-25T20:16:19.746Z,24.71
2018-07-25T20:18:45.781Z,24.65
2018-07-25T20:21:11.818Z,24.55
2018-07-25T20:23:37.854Z,24.49
2018-07-25T20:26:03.890Z,24.43
2018-07-25T20:28:29.927Z,24.33
2018-07-25T20:30:55.966Z,24.23
2018-07-25T20:33:22.006Z,24.22
2018-07-25T20:38:20.554Z,24.11
2018-07-25T20:40:46.596Z,24.08
2018-07-25T20:43:12.634Z,24.04
2018-07-25T20:45:38.672Z,23.99
2018-07-25T20:48:04.811Z,23.93
2018-07-25T20:50:30.842Z,23.89
2018-07-25T20:52:56.881Z,23.83
2018-07-25T20:55:22.914Z,23.79
2018-07-25T20:57:48.958Z,23.75
2018-07-25T21:00:15.048Z,23.68
2018-07-25T21:02:41.070Z,23.63
2018-07-25T21:05:07.169Z,23.57
2018-07-25T21:07:33.211Z,23.52
2018-07-25T21:09:59.254Z,23.47
2018-07-25T21:12:25.294Z,23.44
2018-07-25T21:14:51.334Z,23.41
2018-07-25T21:17:17.374Z,23.39
2018-07-25T21:19:43.419Z,23.34
2018-07-25T21:22:09.454Z,23.28
2018-07-25T21:24:35.537Z,23.21
2018-07-25T21:27:01.576Z,23.18
2018-07-25T21:29:27.617Z,23.14
2018-07-25T21:31:53.674Z,23.08
2018-07-25T21:34:19.750Z,23.05
2018-07-25T21:36:45.801Z,23.05
2018-07-25T21:39:11.829Z,23.07
2018-07-25T21:41:37.911Z,23.04
2018-07-25T21:44:03.946Z,23.05
2018-07-25T21:46:29.980Z,23.05
2018-07-25T21:50:11.712Z,23.02
2018-07-25T21:52:37.894Z,22.99
2018-07-25T21:55:17.358Z,22.99
2018-07-25T21:57:43.418Z,23.02
2018-07-25T22:00:09.455Z,22.99
2018-07-25T22:02:35.609Z,22.98
2018-07-25T22:05:01.659Z,22.92
2018-07-25T22:07:28.417Z,22.93
2018-07-25T22:09:54.549Z,22.91
2018-07-25T22:12:20.588Z,22.89
2018-07-25T22:14:46.628Z,22.90
2018-07-25T22:18:16.152Z,22.86
2018-07-25T22:20:42.182Z,22.82
2018-07-25T22:23:08.213Z,22.82
2018-07-25T22:25:34.250Z,22.76
2018-07-25T22:28:00.291Z,22.68
2018-07-25T22:30:26.404Z,22.65
2018-07-25T22:34:51.695Z,22.57
2018-07-25T22:37:17.730Z,22.55
2018-07-25T22:39:43.758Z,22.48
2018-07-25T22:42:09.789Z,22.43
2018-07-25T22:44:35.848Z,22.38
2018-07-25T22:47:01.918Z,22.29
2018-07-25T22:49:27.946Z,22.28
2018-07-25T22:51:53.974Z,22.26
2018-07-25T22:54:20.006Z,22.20
2018-07-25T22:56:46.047Z,22.16
2018-07-25T22:59:12.110Z,22.10
2018-07-25T23:01:38.153Z,22.05
2018-07-25T23:04:04.188Z,22.00
2018-07-25T23:06:30.226Z,21.97
2018-07-25T23:08:56.258Z,21.90
2018-07-25T23:11:22.294Z,21.86
2018-07-25T23:13:48.321Z,21.80
2018-07-25T23:16:14.353Z,21.76
2018-07-25T23:18:40.385Z,21.72
2018-07-25T23:21:06.533Z,21.66
2018-07-25T23:23:32.576Z,21.60
2018-07-25T23:25:58.887Z,21.59
2018-07-25T23:28:24.925Z,21.56
2018-07-25T23:30:50.964Z,21.54
2018-07-25T23:33:17.094Z,21.50
2018-07-25T23:35:43.159Z,21.46
2018-07-25T23:38:09.217Z,21.44
2018-07-25T23:40:35.273Z,21.40
2018-07-25T23:43:01.307Z,21.36
2018-07-25T23:45:27.338Z,21.32
2018-07-25T23:47:53.370Z,21.27
2018-07-25T23:50:19.409Z,21.24
2018-07-25T23:52:45.440Z,21.20
2018-07-25T23:55:11.514Z,21.20
2018-07-25T23:57:37.542Z,21.20
